createdAt,value
2023-04-19T00:00:39.273Z,10.60
2023-04-19T00:01:39.289Z,10.62
2023-04-19T00:02:40.925Z,10.44
2023-04-19T00:03:39.496Z,10.53
2023-04-19T00:04:39.277Z,10.58
2023-04-19T00:05:39.218Z,10.62
2023-04-19T00:06:39.270Z,10.62
2023-04-19T00:07:39.236Z,10.58
2023-04-19T00:08:39.187Z,10.55
2023-04-19T00:09:39.189Z,10.58
2023-04-19T00:10:39.229Z,10.55
2023-04-19T00:11:39.176Z,10.63
2023-04-19T00:12:39.196Z,10.58
2023-04-19T00:13:39.160Z,10.56
2023-04-19T00:14:39.151Z,10.52
2023-04-19T00:15:39.124Z,10.62
2023-04-19T00:16:39.137Z,10.51
2023-04-19T00:17:39.179Z,10.63
2023-04-19T00:18:39.197Z,10.55
2023-04-19T00:19:39.088Z,10.55
2023-04-19T00:20:39.073Z,10.53
2023-04-19T00:21:39.062Z,10.46
2023-04-19T00:22:39.117Z,10.52
2023-04-19T00:23:39.046Z,10.44
2023-04-19T00:24:39.049Z,10.46
2023-04-19T00:25:39.023Z,10.43
2023-04-19T00:26:39.028Z,10.51
2023-04-19T00:27:39.027Z,10.46
2023-04-19T00:28:38.997Z,10.43
2023-04-19T00:29:38.982Z,10.53
2023-04-19T00:30:38.985Z,10.42
2023-04-19T00:31:38.969Z,10.43
2023-04-19T00:32:39.012Z,10.37
2023-04-19T00:33:38.951Z,10.42
2023-04-19T00:34:38.945Z,10.32
2023-04-19T00:35:38.924Z,10.43
2023-04-19T00:36:38.920Z,10.39
2023-04-19T00:37:38.924Z,10.39
2023-04-19T00:38:38.925Z,10.37
2023-04-19T00:39:38.907Z,10.36
2023-04-19T00:40:38.876Z,10.32
2023-04-19T00:41:38.892Z,10.37
2023-04-19T00:42:38.862Z,10.34
2023-04-19T00:43:38.868Z,10.39
2023-04-19T00:44:38.841Z,10.32
2023-04-19T00:45:38.835Z,10.32
2023-04-19T00:46:39.009Z,10.28
2023-04-19T00:47:39.486Z,10.25
2023-04-19T00:48:38.882Z,10.21
2023-04-19T00:49:38.793Z,10.21
2023-04-19T00:50:38.775Z,10.33
2023-04-19T00:51:38.765Z,10.26
2023-04-19T00:52:38.758Z,10.28
2023-04-19T00:53:38.781Z,10.33
2023-04-19T00:54:38.974Z,10.30
2023-04-19T00:55:38.745Z,10.21
2023-04-19T00:56:38.731Z,10.33
2023-04-19T00:57:38.779Z,10.22
2023-04-19T00:58:38.713Z,10.19
2023-04-19T00:59:38.691Z,10.18
2023-04-19T01:00:38.676Z,10.32
2023-04-19T01:01:38.741Z,10.30
2023-04-19T01:02:38.826Z,10.26
2023-04-19T01:03:38.717Z,10.30
2023-04-19T01:04:38.806Z,10.28
2023-04-19T01:05:38.646Z,10.28
2023-04-19T01:06:38.616Z,10.15
2023-04-19T01:07:38.628Z,10.18
2023-04-19T01:08:38.598Z,10.21
2023-04-19T01:09:38.589Z,10.22
2023-04-19T01:10:38.574Z,10.19
2023-04-19T01:11:38.589Z,10.17
2023-04-19T01:12:38.577Z,10.17
2023-04-19T01:13:38.548Z,10.09
2023-04-19T01:14:38.551Z,10.14
2023-04-19T01:15:38.545Z,10.15
2023-04-19T01:16:38.544Z,10.15
2023-04-19T01:17:38.637Z,10.10
2023-04-19T01:18:38.517Z,9.94
2023-04-19T01:19:38.485Z,10.06
2023-04-19T01:20:38.519Z,10.07
2023-04-19T01:21:38.462Z,10.06
2023-04-19T01:22:38.562Z,10.01
2023-04-19T01:23:39.472Z,10.01
2023-04-19T01:24:38.449Z,10.07
2023-04-19T01:25:38.434Z,10.00
2023-04-19T01:26:38.421Z,9.96
2023-04-19T01:27:38.472Z,9.96
2023-04-19T01:28:38.403Z,9.97
2023-04-19T01:29:38.410Z,9.91
2023-04-19T01:30:38.382Z,10.00
2023-04-19T01:31:38.422Z,9.93
2023-04-19T01:32:38.518Z,9.91
2023-04-19T01:33:38.361Z,9.86
2023-04-19T01:34:38.353Z,9.91
2023-04-19T01:35:38.369Z,9.91
2023-04-19T01:36:38.326Z,9.91
2023-04-19T01:37:38.327Z,9.88
2023-04-19T01:38:38.302Z,9.89
2023-04-19T01:39:38.310Z,9.99
2023-04-19T01:40:38.279Z,9.85
2023-04-19T01:41:38.279Z,9.94
2023-04-19T01:42:38.283Z,9.91
2023-04-19T01:43:38.258Z,9.89
2023-04-19T01:44:38.239Z,9.89
2023-04-19T01:45:38.227Z,9.85
2023-04-19T01:46:39.251Z,9.91
2023-04-19T01:47:38.294Z,9.94
2023-04-19T01:48:38.198Z,9.83
2023-04-19T01:49:38.195Z,9.88
2023-04-19T01:50:38.178Z,9.83
2023-04-19T01:51:38.171Z,9.78
2023-04-19T01:52:38.182Z,9.81
2023-04-19T01:53:38.161Z,9.86
2023-04-19T01:54:38.149Z,9.73
2023-04-19T01:55:38.134Z,9.71
2023-04-19T01:56:38.177Z,9.71
2023-04-19T01:57:38.142Z,9.71
2023-04-19T01:58:38.092Z,9.67
2023-04-19T01:59:38.089Z,9.68
2023-04-19T02:00:38.120Z,9.71
2023-04-19T02:01:38.072Z,9.68
2023-04-19T02:02:38.219Z,9.67
2023-04-19T02:03:38.157Z,9.58
2023-04-19T02:04:38.037Z,9.66
2023-04-19T02:05:38.031Z,9.66
2023-04-19T02:06:38.027Z,9.61
2023-04-19T02:07:38.052Z,9.60
2023-04-19T02:08:38.005Z,9.61
2023-04-19T02:09:37.995Z,9.64
2023-04-19T02:10:37.987Z,9.67
2023-04-19T02:11:37.971Z,9.57
2023-04-19T02:12:37.974Z,9.58
2023-04-19T02:13:37.972Z,9.53
2023-04-19T02:14:37.962Z,9.61
2023-04-19T02:15:37.948Z,9.56
2023-04-19T02:16:37.978Z,9.60
2023-04-19T02:17:38.012Z,9.66
2023-04-19T02:18:37.934Z,9.57
2023-04-19T02:19:37.898Z,9.56
2023-04-19T02:20:37.903Z,9.57
2023-04-19T02:21:37.921Z,9.63
2023-04-19T02:22:37.967Z,9.58
2023-04-19T02:23:37.856Z,9.58
2023-04-19T02:24:37.837Z,9.63
2023-04-19T02:25:37.839Z,9.56
2023-04-19T02:26:37.834Z,9.56
2023-04-19T02:27:37.825Z,9.49
2023-04-19T02:28:37.816Z,9.46
2023-04-19T02:29:37.800Z,9.50
2023-04-19T02:30:37.794Z,9.50
2023-04-19T02:31:37.837Z,9.52
2023-04-19T02:32:37.823Z,9.43
2023-04-19T02:33:37.778Z,9.35
2023-04-19T02:34:37.778Z,9.31
2023-04-19T02:35:37.743Z,9.34
2023-04-19T02:36:37.725Z,9.27
2023-04-19T02:37:37.705Z,9.30
2023-04-19T02:38:37.729Z,9.34
2023-04-19T02:39:37.749Z,9.39
2023-04-19T02:40:37.681Z,9.30
2023-04-19T02:41:37.673Z,9.31
2023-04-19T02:42:37.675Z,9.32
2023-04-19T02:43:37.679Z,9.42
2023-04-19T02:44:37.654Z,9.32
2023-04-19T02:45:37.729Z,9.38
2023-04-19T02:46:37.727Z,9.43
2023-04-19T02:47:37.713Z,9.39
2023-04-19T02:48:37.683Z,9.40
2023-04-19T02:49:37.596Z,9.32
2023-04-19T02:50:37.617Z,9.35
2023-04-19T02:51:37.596Z,9.35
2023-04-19T02:52:37.565Z,9.38
2023-04-19T02:53:37.579Z,9.38
2023-04-19T02:54:37.618Z,9.31
2023-04-19T02:55:37.540Z,9.39
2023-04-19T02:56:37.519Z,9.34
2023-04-19T02:57:37.507Z,9.34
2023-04-19T02:58:37.515Z,9.32
2023-04-19T02:59:37.502Z,9.30
2023-04-19T03:00:37.476Z,9.32
2023-04-19T03:01:37.616Z,9.28
2023-04-19T03:02:37.508Z,9.23
2023-04-19T03:03:37.582Z,9.27
2023-04-19T03:04:37.463Z,9.20
2023-04-19T03:05:37.428Z,9.30
2023-04-19T03:06:37.416Z,9.30
2023-04-19T03:07:37.426Z,9.24
2023-04-19T03:08:37.424Z,9.24
2023-04-19T03:09:37.399Z,9.16
2023-04-19T03:10:37.393Z,9.16
2023-04-19T03:11:37.392Z,9.12
2023-04-19T03:12:37.362Z,9.12
2023-04-19T03:13:37.364Z,9.06
2023-04-19T03:14:37.371Z,9.05
2023-04-19T03:15:37.358Z,9.10
2023-04-19T03:16:37.317Z,9.16
2023-04-19T03:17:37.312Z,9.01
2023-04-19T03:18:37.317Z,9.04
2023-04-19T03:19:37.291Z,8.97
2023-04-19T03:20:37.289Z,9.01
2023-04-19T03:21:37.265Z,8.94
2023-04-19T03:22:37.252Z,8.94
2023-04-19T03:23:37.261Z,8.91
2023-04-19T03:24:38.136Z,8.97
2023-04-19T03:25:38.238Z,9.01
2023-04-19T03:26:37.209Z,9.01
2023-04-19T03:27:37.207Z,8.96
2023-04-19T03:28:37.209Z,8.87
2023-04-19T03:29:37.240Z,8.81
2023-04-19T03:30:37.206Z,8.81
2023-04-19T03:31:37.249Z,8.86
2023-04-19T03:32:37.191Z,8.78
2023-04-19T03:33:37.161Z,8.83
2023-04-19T03:34:37.131Z,8.78
2023-04-19T03:35:37.130Z,8.84
2023-04-19T03:36:37.111Z,8.69
2023-04-19T03:37:37.103Z,8.78
2023-04-19T03:38:37.114Z,8.66
2023-04-19T03:39:37.075Z,8.63
2023-04-19T03:40:37.061Z,8.65
2023-04-19T03:41:37.050Z,8.66
2023-04-19T03:42:37.201Z,8.53
2023-04-19T03:43:37.035Z,8.65
2023-04-19T03:44:37.031Z,8.58
2023-04-19T03:45:37.055Z,8.66
2023-04-19T03:46:37.063Z,8.57
2023-04-19T03:47:37.033Z,8.57
2023-04-19T03:48:36.998Z,8.45
2023-04-19T03:49:36.987Z,8.51
2023-04-19T03:50:36.967Z,8.47
2023-04-19T03:51:36.976Z,8.45
2023-04-19T03:52:36.941Z,8.47
2023-04-19T03:53:36.958Z,8.42
2023-04-19T03:54:36.937Z,8.33
2023-04-19T03:55:36.928Z,8.44
2023-04-19T03:56:36.904Z,8.39
2023-04-19T03:57:36.894Z,8.42
2023-04-19T03:58:36.905Z,8.42
2023-04-19T03:59:36.878Z,8.36
2023-04-19T04:00:36.888Z,8.36
2023-04-19T04:01:36.906Z,8.35
2023-04-19T04:02:36.956Z,8.39
2023-04-19T04:03:37.071Z,8.35
2023-04-19T04:04:37.014Z,8.36
2023-04-19T04:05:36.910Z,8.26
2023-04-19T04:06:36.810Z,8.35
2023-04-19T04:07:36.801Z,8.45
2023-04-19T04:08:36.800Z,8.30
2023-04-19T04:09:36.789Z,8.18
2023-04-19T04:10:36.762Z,8.25
2023-04-19T04:11:36.753Z,8.28
2023-04-19T04:12:36.749Z,8.28
2023-04-19T04:13:36.749Z,8.22
2023-04-19T04:14:36.728Z,8.28
2023-04-19T04:15:36.740Z,8.15
2023-04-19T04:16:36.775Z,8.22
2023-04-19T04:17:36.714Z,8.21
2023-04-19T04:18:36.701Z,8.28
2023-04-19T04:19:36.673Z,8.11
2023-04-19T04:20:36.658Z,8.10
2023-04-19T04:21:36.657Z,8.07
2023-04-19T04:22:36.644Z,7.96
2023-04-19T04:23:36.661Z,7.94
2023-04-19T04:24:36.625Z,7.90
2023-04-19T04:25:36.607Z,7.94
2023-04-19T04:26:36.599Z,7.96
2023-04-19T04:27:36.587Z,7.89
2023-04-19T04:28:36.620Z,7.78
2023-04-19T04:29:36.580Z,7.79
2023-04-19T04:30:36.612Z,7.67
2023-04-19T04:31:36.603Z,7.78
2023-04-19T04:32:36.581Z,7.78
2023-04-19T04:33:36.554Z,7.81
2023-04-19T04:34:36.536Z,7.78
2023-04-19T04:35:36.524Z,7.74
2023-04-19T04:36:36.518Z,7.74
2023-04-19T04:37:36.531Z,7.78
2023-04-19T04:38:36.520Z,7.69
2023-04-19T04:39:36.500Z,7.69
2023-04-19T04:40:36.475Z,7.56
2023-04-19T04:41:36.471Z,7.60
2023-04-19T04:42:36.479Z,7.59
2023-04-19T04:43:36.494Z,7.58
2023-04-19T04:44:36.450Z,7.63
2023-04-19T04:45:36.478Z,7.50
2023-04-19T04:46:36.428Z,7.55
2023-04-19T04:47:36.432Z,7.49
2023-04-19T04:48:36.448Z,7.41
2023-04-19T04:49:36.388Z,7.47
2023-04-19T04:50:36.385Z,7.47
2023-04-19T04:51:36.384Z,7.37
2023-04-19T04:52:36.389Z,7.44
2023-04-19T04:53:36.373Z,7.29
2023-04-19T04:54:36.338Z,7.29
2023-04-19T04:55:36.389Z,7.26
2023-04-19T04:56:36.374Z,7.34
2023-04-19T04:57:36.317Z,7.32
2023-04-19T04:58:36.331Z,7.34
2023-04-19T04:59:36.302Z,7.27
2023-04-19T05:00:36.283Z,7.26
2023-04-19T05:01:36.288Z,7.32
2023-04-19T05:02:36.383Z,7.26
2023-04-19T05:03:36.333Z,7.24
2023-04-19T05:04:36.280Z,7.22
2023-04-19T05:05:36.236Z,7.15
2023-04-19T05:06:36.216Z,7.13
2023-04-19T05:07:37.212Z,7.08
2023-04-19T05:08:36.232Z,7.16
2023-04-19T05:09:36.188Z,7.07
2023-04-19T05:10:36.174Z,7.09
2023-04-19T05:11:36.182Z,7.04
2023-04-19T05:12:36.177Z,7.08
2023-04-19T05:13:36.225Z,7.04
2023-04-19T05:14:36.275Z,7.01
2023-04-19T05:15:36.191Z,6.95
2023-04-19T05:16:36.247Z,6.95
2023-04-19T05:17:36.143Z,7.01
2023-04-19T05:18:36.219Z,6.94
2023-04-19T05:19:36.085Z,7.02
2023-04-19T05:20:36.081Z,6.84
2023-04-19T05:21:36.078Z,6.98
2023-04-19T05:22:36.071Z,6.94
2023-04-19T05:23:36.063Z,6.94
2023-04-19T05:24:36.033Z,6.80
2023-04-19T05:25:36.028Z,6.90
2023-04-19T05:26:36.014Z,6.95
2023-04-19T05:27:35.997Z,6.90
2023-04-19T05:28:36.006Z,6.77
2023-04-19T05:29:35.995Z,6.94
2023-04-19T05:30:35.976Z,6.90
2023-04-19T05:31:36.067Z,6.90
2023-04-19T05:32:36.024Z,6.86
2023-04-19T05:33:35.959Z,6.84
2023-04-19T05:34:35.952Z,6.84
2023-04-19T05:35:35.979Z,6.83
2023-04-19T05:36:35.913Z,6.86
2023-04-19T05:37:35.911Z,6.83
2023-04-19T05:38:35.963Z,6.83
2023-04-19T05:39:35.894Z,6.83
2023-04-19T05:40:35.875Z,6.80
2023-04-19T05:41:35.880Z,6.87
2023-04-19T05:42:35.850Z,6.76
2023-04-19T05:43:36.902Z,6.77
2023-04-19T05:44:35.841Z,6.87
2023-04-19T05:45:35.829Z,6.90
2023-04-19T05:46:35.848Z,6.79
2023-04-19T05:47:35.821Z,6.69
2023-04-19T05:48:35.814Z,6.73
2023-04-19T05:49:35.793Z,6.66
2023-04-19T05:50:35.775Z,6.66
2023-04-19T05:51:35.763Z,6.81
2023-04-19T05:52:35.765Z,6.71
2023-04-19T05:53:35.761Z,6.68
2023-04-19T05:54:35.770Z,6.65
2023-04-19T05:55:35.729Z,6.76
2023-04-19T05:56:35.719Z,6.61
2023-04-19T05:57:35.702Z,6.59
2023-04-19T05:58:35.723Z,6.62
2023-04-19T05:59:35.683Z,6.76
2023-04-19T06:00:35.692Z,6.76
2023-04-19T06:01:35.659Z,6.72
2023-04-19T06:02:35.839Z,6.72
2023-04-19T06:03:35.762Z,6.61
2023-04-19T06:04:35.771Z,6.62
2023-04-19T06:05:35.664Z,6.79
2023-04-19T06:06:35.604Z,6.71
2023-04-19T06:07:40.119Z,6.73
2023-04-19T06:08:37.626Z,6.83
2023-04-19T06:09:35.588Z,6.84
2023-04-19T06:10:48.802Z,6.87
2023-04-19T06:11:47.127Z,6.89
2023-04-19T06:12:37.560Z,6.97
2023-04-19T06:13:35.555Z,6.94
2023-04-19T06:14:35.528Z,7.02
2023-04-19T06:16:07.957Z,6.99
2023-04-19T06:16:35.600Z,7.05
2023-04-19T06:17:35.506Z,6.95
2023-04-19T06:18:35.512Z,7.16
2023-04-19T06:19:35.487Z,7.02
2023-04-19T06:20:35.469Z,7.16
2023-04-19T06:21:35.470Z,7.01
2023-04-19T06:22:35.447Z,7.05
2023-04-19T06:23:35.450Z,7.17
2023-04-19T06:24:35.500Z,7.12
2023-04-19T06:25:36.421Z,7.22
2023-04-19T06:26:35.402Z,7.16
2023-04-19T06:27:35.389Z,7.34
2023-04-19T06:28:35.412Z,7.32
2023-04-19T06:29:35.387Z,7.34
2023-04-19T06:30:35.371Z,7.26
2023-04-19T06:31:35.406Z,7.26
2023-04-19T06:32:35.387Z,7.22
2023-04-19T06:33:35.406Z,7.20
2023-04-19T06:34:35.341Z,7.26
2023-04-19T06:35:35.346Z,7.32
2023-04-19T06:36:35.314Z,7.38
2023-04-19T06:37:35.293Z,7.27
2023-04-19T06:38:35.302Z,7.40
2023-04-19T06:39:35.269Z,7.45
2023-04-19T06:40:35.313Z,7.60
2023-04-19T06:41:35.252Z,7.49
2023-04-19T06:42:35.241Z,7.42
2023-04-19T06:43:35.256Z,7.66
2023-04-19T06:44:35.241Z,7.63
2023-04-19T06:45:35.266Z,7.50
2023-04-19T06:46:35.202Z,7.45
2023-04-19T06:47:35.806Z,7.44
2023-04-19T06:48:36.202Z,7.50
2023-04-19T06:49:35.177Z,7.55
2023-04-19T06:50:35.175Z,7.58
2023-04-19T06:51:35.172Z,7.59
2023-04-19T06:52:35.172Z,7.63
2023-04-19T06:53:35.157Z,7.58
2023-04-19T06:54:35.169Z,7.55
2023-04-19T06:55:35.133Z,7.47
2023-04-19T06:56:35.116Z,7.52
2023-04-19T06:57:35.102Z,7.58
2023-04-19T06:58:35.600Z,7.69
2023-04-19T06:59:35.078Z,7.63
2023-04-19T07:00:35.097Z,7.69
2023-04-19T07:01:35.109Z,7.77
2023-04-19T07:02:35.117Z,7.77
2023-04-19T07:03:35.217Z,7.69
2023-04-19T07:04:35.084Z,7.71
2023-04-19T07:05:35.042Z,7.55
2023-04-19T07:06:35.033Z,7.58
2023-04-19T07:07:35.007Z,7.69
2023-04-19T07:08:48.663Z,7.59
2023-04-19T07:09:37.014Z,7.60
2023-04-19T07:10:34.966Z,7.72
2023-04-19T07:11:34.972Z,7.66
2023-04-19T07:12:34.950Z,7.69
2023-04-19T07:13:34.957Z,7.50
2023-04-19T07:14:34.933Z,7.42
2023-04-19T07:15:35.184Z,7.34
2023-04-19T07:16:34.907Z,7.37
2023-04-19T07:17:34.966Z,7.42
2023-04-19T07:18:34.917Z,7.63
2023-04-19T07:19:34.921Z,7.78
2023-04-19T07:20:34.866Z,7.79
2023-04-19T07:21:34.881Z,7.87
2023-04-19T07:22:34.869Z,7.84
2023-04-19T07:23:34.865Z,7.96
2023-04-19T07:24:34.833Z,7.96
2023-04-19T07:25:34.804Z,7.97
2023-04-19T07:26:34.833Z,7.99
2023-04-19T07:27:35.024Z,8.02
2023-04-19T07:28:34.831Z,8.10
2023-04-19T07:29:34.766Z,8.18
2023-04-19T07:30:34.773Z,8.07
2023-04-19T07:31:34.753Z,8.17
2023-04-19T07:32:34.942Z,8.11
2023-04-19T07:33:34.818Z,8.18
2023-04-19T07:34:34.724Z,8.22
2023-04-19T07:35:34.743Z,8.39
2023-04-19T07:36:34.703Z,8.36
2023-04-19T07:37:34.704Z,8.26
2023-04-19T07:38:34.715Z,8.30
2023-04-19T07:39:34.674Z,8.29
2023-04-19T07:40:34.654Z,8.28
2023-04-19T07:41:36.089Z,8.20
2023-04-19T07:42:34.846Z,8.20
2023-04-19T07:43:34.660Z,8.28
2023-04-19T07:44:34.629Z,8.35
2023-04-19T07:45:34.618Z,8.42
2023-04-19T07:46:34.698Z,8.40
2023-04-19T07:47:34.613Z,8.48
2023-04-19T07:48:34.606Z,8.44
2023-04-19T07:49:34.593Z,8.29
2023-04-19T07:50:34.567Z,8.40
2023-04-19T07:51:34.664Z,8.30
2023-04-19T07:52:34.547Z,8.35
2023-04-19T07:53:34.552Z,8.33
2023-04-19T07:54:34.526Z,8.21
2023-04-19T07:55:34.511Z,8.28
2023-04-19T07:56:34.510Z,8.22
2023-04-19T07:57:34.509Z,8.17
2023-04-19T07:58:34.686Z,8.37
2023-04-19T07:59:34.476Z,8.45
2023-04-19T08:00:34.476Z,8.58
2023-04-19T08:01:34.545Z,8.72
2023-04-19T08:02:34.726Z,8.58
2023-04-19T08:03:34.629Z,8.39
2023-04-19T08:04:34.614Z,8.39
2023-04-19T08:05:34.738Z,8.33
2023-04-19T08:06:34.422Z,8.37
2023-04-19T08:07:34.435Z,8.45
2023-04-19T08:08:34.563Z,8.44
2023-04-19T08:09:34.409Z,8.50
2023-04-19T08:10:34.399Z,8.63
2023-04-19T08:11:34.360Z,8.69
2023-04-19T08:12:42.767Z,8.75
2023-04-19T08:13:36.366Z,8.83
2023-04-19T08:14:43.886Z,8.86
2023-04-19T08:17:41.852Z,9.02
2023-04-19T08:18:36.330Z,9.18
2023-04-19T08:19:34.274Z,9.06
2023-04-19T08:20:34.268Z,8.96
2023-04-19T08:21:40.665Z,8.99
2023-04-19T08:22:36.249Z,9.16
2023-04-19T08:23:47.198Z,9.18
2023-04-19T08:24:36.233Z,9.27
2023-04-19T08:25:34.242Z,9.27
2023-04-19T08:26:34.218Z,9.31
2023-04-19T08:27:34.205Z,9.30
2023-04-19T08:28:34.208Z,9.09
2023-04-19T08:29:34.203Z,9.04
2023-04-19T08:30:34.257Z,8.94
2023-04-19T08:31:34.173Z,9.01
2023-04-19T08:32:34.205Z,9.13
2023-04-19T08:33:34.160Z,9.12
2023-04-19T08:34:34.138Z,9.23
2023-04-19T08:35:34.125Z,9.32
2023-04-19T08:36:41.026Z,9.28
2023-04-19T08:37:36.117Z,9.24
2023-04-19T08:38:34.107Z,9.16
2023-04-19T08:39:34.603Z,9.18
2023-04-19T08:40:34.076Z,9.25
2023-04-19T08:41:34.064Z,9.34
2023-04-19T08:42:36.885Z,9.46
2023-04-19T08:43:35.083Z,9.35
2023-04-19T08:44:36.823Z,9.50
2023-04-19T08:45:35.033Z,9.56
2023-04-19T08:46:34.203Z,9.64
2023-04-19T08:47:34.509Z,9.76
2023-04-19T08:48:35.071Z,9.70
2023-04-19T08:49:33.979Z,9.67
2023-04-19T08:50:42.767Z,9.71
2023-04-19T08:51:35.960Z,9.71
2023-04-19T08:52:35.397Z,9.75
2023-04-19T08:53:33.974Z,9.71
2023-04-19T08:54:33.962Z,9.66
2023-04-19T08:55:33.918Z,9.63
2023-04-19T08:56:35.987Z,9.53
2023-04-19T08:57:34.887Z,9.67
2023-04-19T08:58:52.126Z,9.75
2023-04-19T08:59:35.875Z,9.58
2023-04-19T09:00:33.879Z,9.63
2023-04-19T09:01:36.256Z,9.56
2023-04-19T09:02:35.093Z,9.67
2023-04-19T09:03:43.977Z,9.70
2023-04-19T09:04:37.271Z,9.66
2023-04-19T09:05:34.985Z,9.81
2023-04-19T09:06:34.088Z,9.76
2023-04-19T09:07:33.804Z,9.78
2023-04-19T09:08:33.786Z,9.67
2023-04-19T09:09:39.128Z,9.67
2023-04-19T09:10:35.751Z,9.76
2023-04-19T09:11:33.754Z,9.93
2023-04-19T09:12:33.775Z,9.83
2023-04-19T09:13:33.739Z,9.94
2023-04-19T09:14:33.714Z,9.85
2023-04-19T09:15:33.716Z,9.82
2023-04-19T09:16:33.693Z,9.83
2023-04-19T09:17:33.710Z,9.85
2023-04-19T09:18:39.903Z,9.88
2023-04-19T09:19:35.661Z,9.91
2023-04-19T09:20:33.648Z,9.81
2023-04-19T09:21:33.646Z,9.82
2023-04-19T09:22:33.645Z,9.94
2023-04-19T09:23:33.644Z,9.93
2023-04-19T09:24:57.235Z,10.00
2023-04-19T09:25:52.299Z,10.14
2023-04-19T09:26:35.589Z,10.33
2023-04-19T09:27:33.600Z,10.37
2023-04-19T09:28:33.619Z,10.62
2023-04-19T09:29:33.558Z,10.55
2023-04-19T09:30:43.465Z,10.43
2023-04-19T09:31:51.035Z,10.22
2023-04-19T09:32:35.620Z,10.21
2023-04-19T09:33:33.569Z,10.37
2023-04-19T09:34:33.514Z,10.39
2023-04-19T09:35:33.499Z,10.25
2023-04-19T09:36:33.516Z,10.22
2023-04-19T09:37:57.345Z,10.36
2023-04-19T09:38:35.509Z,10.44
2023-04-19T09:39:33.467Z,10.63
2023-04-19T09:40:33.437Z,10.66
2023-04-19T09:41:33.430Z,10.84
2023-04-19T09:42:55.308Z,10.84
2023-04-19T09:45:05.999Z,10.89
2023-04-19T09:45:35.404Z,10.78
2023-04-19T09:46:33.448Z,10.98
2023-04-19T09:47:33.407Z,11.02
2023-04-19T09:48:33.409Z,10.81
2023-04-19T09:49:46.022Z,10.88
2023-04-19T09:50:50.334Z,10.95
2023-04-19T09:51:34.341Z,10.84
2023-04-19T09:52:33.324Z,10.70
2023-04-19T09:53:33.347Z,10.78
2023-04-19T09:54:33.301Z,10.74
2023-04-19T09:55:41.266Z,10.86
2023-04-19T09:56:35.296Z,10.91
2023-04-19T09:57:33.280Z,10.84
2023-04-19T09:59:34.263Z,11.16
2023-04-19T10:00:39.000Z,11.19
2023-04-19T10:01:35.263Z,11.32
2023-04-19T10:02:33.375Z,11.24
2023-04-19T10:03:33.322Z,11.35
2023-04-19T10:04:54.662Z,11.36
2023-04-19T10:05:35.273Z,11.25
2023-04-19T10:06:46.238Z,11.21
2023-04-19T10:07:35.237Z,11.11
2023-04-19T10:08:33.204Z,11.21
2023-04-19T10:09:35.713Z,11.21
2023-04-19T10:10:41.986Z,11.20
2023-04-19T10:11:35.143Z,11.27
2023-04-19T10:13:34.152Z,11.41
2023-04-19T10:14:33.121Z,11.29
2023-04-19T10:15:47.262Z,11.46
2023-04-19T10:16:35.111Z,11.46
2023-04-19T10:17:33.179Z,11.27
2023-04-19T10:18:33.099Z,11.29
2023-04-19T10:19:33.060Z,11.25
2023-04-19T10:20:33.055Z,11.36
2023-04-19T10:21:33.047Z,11.35
2023-04-19T10:22:33.166Z,11.39
2023-04-19T10:23:33.043Z,11.41
2023-04-19T10:24:33.001Z,11.38
2023-04-19T10:25:32.997Z,11.35
2023-04-19T10:26:32.996Z,11.28
2023-04-19T10:27:32.978Z,11.16
2023-04-19T10:28:32.991Z,11.17
2023-04-19T10:29:32.953Z,11.10
2023-04-19T10:30:32.948Z,10.99
2023-04-19T10:31:33.000Z,10.80
2023-04-19T10:32:33.016Z,10.88
2023-04-19T10:33:32.956Z,10.92
2023-04-19T10:34:32.908Z,11.11
2023-04-19T10:35:32.894Z,11.38
2023-04-19T10:36:32.896Z,11.54
2023-04-19T10:37:32.894Z,11.62
2023-04-19T10:38:32.860Z,11.71
2023-04-19T10:39:32.909Z,11.71
2023-04-19T10:40:32.847Z,11.77
2023-04-19T10:41:32.833Z,11.74
2023-04-19T10:42:32.819Z,11.74
2023-04-19T10:43:32.805Z,11.82
2023-04-19T10:44:32.809Z,11.87
2023-04-19T10:45:32.786Z,12.02
2023-04-19T10:46:32.912Z,12.16
2023-04-19T10:47:32.833Z,12.19
2023-04-19T10:48:32.771Z,12.26
2023-04-19T10:49:32.782Z,12.44
2023-04-19T10:50:32.743Z,12.31
2023-04-19T10:51:32.829Z,12.20
2023-04-19T10:52:32.719Z,11.90
2023-04-19T10:53:32.741Z,11.72
2023-04-19T10:54:32.771Z,11.74
2023-04-19T10:55:32.701Z,11.82
2023-04-19T10:56:32.700Z,11.85
2023-04-19T10:57:32.672Z,11.89
2023-04-19T10:58:32.818Z,11.87
2023-04-19T10:59:32.654Z,11.93
2023-04-19T11:00:32.650Z,12.04
2023-04-19T11:01:32.680Z,12.11
2023-04-19T11:02:32.821Z,12.08
2023-04-19T11:03:32.646Z,12.15
2023-04-19T11:04:32.890Z,12.12
2023-04-19T11:05:32.597Z,12.21
2023-04-19T11:06:32.593Z,12.30
2023-04-19T11:07:32.603Z,12.26
2023-04-19T11:08:32.568Z,12.27
2023-04-19T11:09:32.566Z,12.19
2023-04-19T11:10:32.548Z,12.20
2023-04-19T11:11:32.532Z,12.13
2023-04-19T11:12:32.522Z,11.97
2023-04-19T11:13:32.526Z,11.97
2023-04-19T11:14:32.522Z,11.96
2023-04-19T11:15:32.503Z,11.99
2023-04-19T11:16:45.107Z,12.06
2023-04-19T11:17:34.514Z,12.08
2023-04-19T11:18:32.533Z,12.27
2023-04-19T11:19:32.511Z,12.30
2023-04-19T11:20:32.446Z,12.41
2023-04-19T11:21:32.444Z,12.26
2023-04-19T11:22:32.443Z,12.16
2023-04-19T11:23:32.420Z,12.30
2023-04-19T11:24:32.432Z,12.27
2023-04-19T11:25:32.405Z,12.31
2023-04-19T11:26:32.394Z,12.12
2023-04-19T11:27:32.375Z,12.20
2023-04-19T11:28:32.360Z,12.16
2023-04-19T11:29:32.376Z,12.15
2023-04-19T11:30:32.338Z,12.15
2023-04-19T11:31:32.360Z,12.09
2023-04-19T11:32:32.336Z,12.06
2023-04-19T11:33:32.308Z,12.20
2023-04-19T11:34:32.310Z,12.33
2023-04-19T11:35:32.296Z,12.33
2023-04-19T11:36:32.294Z,12.29
2023-04-19T11:37:32.456Z,12.45
2023-04-19T11:38:32.296Z,12.48
2023-04-19T11:39:32.280Z,12.46
2023-04-19T11:40:32.243Z,12.60
2023-04-19T11:41:32.228Z,12.60
2023-04-19T11:42:32.274Z,12.42
2023-04-19T11:43:32.288Z,12.52
2023-04-19T11:44:32.209Z,12.29
2023-04-19T11:45:34.833Z,12.31
2023-04-19T11:46:34.202Z,12.27
2023-04-19T11:47:32.193Z,12.37
2023-04-19T11:48:32.186Z,12.42
2023-04-19T11:49:32.150Z,12.38
2023-04-19T11:50:32.151Z,12.45
2023-04-19T11:51:32.139Z,12.52
2023-04-19T11:52:32.125Z,12.27
2023-04-19T11:53:32.146Z,12.26
2023-04-19T11:54:32.094Z,12.13
2023-04-19T11:55:32.089Z,12.13
2023-04-19T11:56:32.111Z,12.09
2023-04-19T11:57:32.110Z,12.16
2023-04-19T11:58:32.204Z,12.16
2023-04-19T11:59:32.049Z,12.04
2023-04-19T12:00:32.039Z,12.08
2023-04-19T12:01:32.035Z,12.11
2023-04-19T12:02:32.073Z,12.09
2023-04-19T12:03:32.144Z,12.11
2023-04-19T12:04:32.219Z,12.09
2023-04-19T12:05:33.098Z,12.12
2023-04-19T12:06:32.015Z,12.15
2023-04-19T12:07:31.972Z,12.23
2023-04-19T12:08:31.967Z,12.24
2023-04-19T12:09:31.977Z,12.23
2023-04-19T12:10:31.927Z,12.39
2023-04-19T12:11:31.916Z,12.45
2023-04-19T12:12:31.932Z,12.59
2023-04-19T12:13:31.972Z,12.75
2023-04-19T12:14:31.950Z,12.56
2023-04-19T12:15:31.886Z,12.54
2023-04-19T12:16:31.899Z,12.64
2023-04-19T12:17:31.903Z,12.75
2023-04-19T12:18:31.896Z,12.81
2023-04-19T12:19:31.857Z,12.81
2023-04-19T12:20:31.839Z,12.96
2023-04-19T12:21:31.824Z,13.03
2023-04-19T12:22:31.818Z,13.00
2023-04-19T12:23:31.804Z,12.84
2023-04-19T12:24:31.816Z,12.75
2023-04-19T12:25:31.782Z,12.71
2023-04-19T12:26:31.775Z,12.62
2023-04-19T12:27:31.767Z,12.71
2023-04-19T12:28:31.763Z,12.89
2023-04-19T12:29:31.752Z,13.02
2023-04-19T12:30:31.755Z,13.06
2023-04-19T12:31:31.738Z,13.03
2023-04-19T12:32:31.715Z,12.95
2023-04-19T12:33:31.686Z,12.92
2023-04-19T12:34:31.722Z,12.92
2023-04-19T12:35:31.702Z,12.92
2023-04-19T12:36:31.707Z,12.87
2023-04-19T12:37:31.656Z,12.74
2023-04-19T12:38:31.653Z,12.31
2023-04-19T12:39:31.657Z,12.39
2023-04-19T12:40:31.631Z,12.59
2023-04-19T12:41:31.627Z,12.69
2023-04-19T12:42:31.608Z,12.70
2023-04-19T12:43:31.597Z,12.93
2023-04-19T12:44:31.608Z,12.82
2023-04-19T12:45:32.526Z,12.78
2023-04-19T12:46:31.701Z,12.74
2023-04-19T12:47:31.571Z,12.74
2023-04-19T12:48:31.553Z,12.82
2023-04-19T12:49:31.556Z,12.96
2023-04-19T12:50:31.519Z,13.09
2023-04-19T12:51:31.516Z,13.14
2023-04-19T12:52:31.510Z,13.18
2023-04-19T12:53:31.498Z,13.22
2023-04-19T12:54:31.497Z,13.25
2023-04-19T12:55:31.466Z,12.99
2023-04-19T12:56:31.462Z,12.75
2023-04-19T12:57:31.444Z,12.79
2023-04-19T12:58:31.435Z,12.70
2023-04-19T12:59:31.447Z,12.64
2023-04-19T13:00:31.422Z,12.67
2023-04-19T13:01:31.471Z,12.63
2023-04-19T13:02:31.625Z,12.49
2023-04-19T13:03:31.529Z,12.52
2023-04-19T13:04:31.461Z,12.38
2023-04-19T13:05:31.376Z,12.46
2023-04-19T13:06:31.362Z,12.45
2023-04-19T13:07:31.370Z,12.48
2023-04-19T13:08:44.207Z,12.64
2023-04-19T13:09:33.379Z,12.62
2023-04-19T13:10:31.330Z,12.75
2023-04-19T13:11:31.316Z,12.82
2023-04-19T13:12:31.313Z,12.82
2023-04-19T13:13:31.295Z,12.92